Time;durP1;ratioP1;P1;durP2;ratioP2;P2;SDS_P1;SDS_P2;PMS_P1;PMS_P2;Temp;Humidity;BMP_temperature;BMP_pressure;BME280_temperature;BME280_humidity;BME280_pressure;Samples;Min_cycle;Max_cycle;Signal;HPM_P1;HPM_P2
2022/10/08 00:01:17;;;;;;;7.43;2.37;;;13.80;99.90;;;;;;5079367;28;20213;-33
2022/10/08 00:03:47;;;;;;;7.77;2.10;;;13.90;99.90;;;;;;5070667;28;20226;-32
2022/10/08 00:06:27;;;;;;;5.73;2.03;;;13.90;99.90;;;;;;5073953;28;20202;-33
2022/10/08 00:09:01;;;;;;;7.03;2.40;;;13.90;99.90;;;;;;5046831;28;20625;-32
2022/10/08 00:11:33;;;;;;;5.30;2.00;;;13.90;99.90;;;;;;5080887;28;20193;-34
2022/10/08 00:14:03;;;;;;;6.37;2.20;;;13.90;99.90;;;;;;5071595;28;20206;-32
2022/10/08 00:16:33;;;;;;;8.27;2.40;;;13.90;99.90;;;;;;5080862;28;20216;-33
2022/10/08 00:19:04;;;;;;;9.33;2.43;;;14.00;99.90;;;;;;5072451;28;20258;-34
2022/10/08 00:21:36;;;;;;;4.23;2.03;;;14.00;99.90;;;;;;5084422;28;20458;-32
2022/10/08 00:24:05;;;;;;;6.47;1.83;;;14.00;99.90;;;;;;5085217;28;20242;-32
2022/10/08 00:26:35;;;;;;;4.70;1.97;;;14.00;99.90;;;;;;5048036;28;20616;-34
2022/10/08 00:29:12;;;;;;;6.30;1.97;;;14.00;99.90;;;;;;5070044;28;20209;-33
2022/10/08 00:31:42;;;;;;;6.27;1.90;;;14.00;99.90;;;;;;5075963;28;20197;-31
2022/10/08 00:34:13;;;;;;;6.93;1.77;;;14.00;99.90;;;;;;5080512;28;20378;-31
2022/10/08 00:36:43;;;;;;;6.70;1.90;;;14.10;99.90;;;;;;5050347;28;20321;-31
2022/10/08 00:39:13;;;;;;;6.87;2.07;;;14.10;99.90;;;;;;5065968;28;20616;-31
2022/10/08 00:41:42;;;;;;;7.80;2.03;;;14.10;99.90;;;;;;5073518;28;20225;-31
2022/10/08 00:44:52;;;;;;;7.23;2.23;;;14.10;99.90;;;;;;5074547;28;20207;-31
2022/10/08 00:47:32;;;;;;;7.83;2.07;;;14.20;99.90;;;;;;5075637;28;20207;-31
2022/10/08 00:50:09;;;;;;;9.33;2.00;;;14.10;99.90;;;;;;5081232;28;20227;-31
2022/10/08 00:52:52;;;;;;;8.30;2.10;;;14.10;99.90;;;;;;5085588;28;20668;-32
2022/10/08 00:55:22;;;;;;;4.60;1.83;;;14.20;99.90;;;;;;5084086;28;21511;-32
2022/10/08 00:57:50;;;;;;;6.70;2.33;;;14.20;99.90;;;;;;5068446;28;20215;-32
2022/10/08 01:00:24;;;;;;;6.23;2.17;;;14.20;99.90;;;;;;5055525;28;20580;-32
2022/10/08 01:02:55;;;;;;;3.83;1.57;;;14.20;99.90;;;;;;5056372;28;20207;-32
2022/10/08 01:05:54;;;;;;;7.73;1.97;;;14.20;99.90;;;;;;5045466;28;20208;-32
2022/10/08 01:08:49;;;;;;;4.37;1.67;;;14.20;99.90;;;;;;5058963;28;20217;-32
2022/10/08 01:11:32;;;;;;;7.47;1.83;;;14.30;99.90;;;;;;5045406;28;20298;-32
2022/10/08 01:14:43;;;;;;;6.63;1.97;;;14.30;99.90;;;;;;5045271;28;20196;-32
2022/10/08 01:17:11;;;;;;;7.80;2.07;;;14.30;99.90;;;;;;5049917;28;20231;-32
2022/10/08 01:20:00;;;;;;;5.73;1.63;;;14.30;99.90;;;;;;5057599;28;20231;-32
2022/10/08 01:22:52;;;;;;;6.20;2.00;;;14.30;99.90;;;;;;5045267;28;20197;-32
2022/10/08 01:25:33;;;;;;;8.57;2.10;;;14.40;99.90;;;;;;5045041;28;20235;-32
2022/10/08 01:28:21;;;;;;;10.47;2.10;;;14.40;99.90;;;;;;5044759;28;20624;-32
2022/10/08 01:31:00;;;;;;;5.67;1.60;;;14.40;99.90;;;;;;5044598;28;20548;-32
2022/10/08 01:33:37;;;;;;;5.57;1.60;;;14.40;99.90;;;;;;5072612;28;20238;-32
2022/10/08 01:36:06;;;;;;;5.73;1.67;;;14.40;99.90;;;;;;5063862;28;20211;-31
2022/10/08 01:38:39;;;;;;;3.63;1.43;;;14.50;99.90;;;;;;5064650;28;20624;-31
2022/10/08 01:41:10;;;;;;;8.70;1.60;;;14.50;99.90;;;;;;5068227;28;20195;-31
2022/10/08 01:43:42;;;;;;;7.33;1.73;;;14.60;99.90;;;;;;5075993;28;20218;-33
2022/10/08 01:46:18;;;;;;;6.93;1.60;;;14.60;99.90;;;;;;5066284;28;20195;-31
2022/10/08 01:48:49;;;;;;;8.97;1.60;;;14.70;99.90;;;;;;5072003;28;20195;-31
2022/10/08 01:51:23;;;;;;;7.60;1.80;;;14.70;99.90;;;;;;5087778;28;20687;-31
2022/10/08 01:53:52;;;;;;;7.23;1.83;;;14.70;99.90;;;;;;5088997;28;20586;-32
2022/10/08 01:56:26;;;;;;;6.87;1.60;;;14.80;99.90;;;;;;5076072;28;20204;-32
2022/10/08 01:59:12;;;;;;;6.20;1.43;;;14.80;99.90;;;;;;5070641;28;20584;-31
2022/10/08 02:01:51;;;;;;;5.97;1.40;;;14.80;99.90;;;;;;5056471;28;20199;-32
2022/10/08 02:04:36;;;;;;;7.27;1.60;;;14.90;99.90;;;;;;5068380;28;20247;-32
2022/10/08 02:07:19;;;;;;;5.57;1.57;;;14.90;99.90;;;;;;5087524;28;20248;-32
2022/10/08 02:09:53;;;;;;;5.73;1.60;;;14.90;99.90;;;;;;5088774;28;20294;-32
2022/10/08 02:12:23;;;;;;;5.00;1.53;;;14.90;99.90;;;;;;5081061;28;20210;-32
2022/10/08 02:14:53;;;;;;;7.97;2.20;;;15.00;99.90;;;;;;5065858;28;20693;-32
2022/10/08 02:17:36;;;;;;;4.87;1.53;;;15.00;99.90;;;;;;5071445;28;20211;-31
2022/10/08 02:20:24;;;;;;;6.47;1.60;;;15.10;99.90;;;;;;5087349;28;20201;-32
2022/10/08 02:22:59;;;;;;;6.60;1.80;;;15.20;99.90;;;;;;5069002;28;20204;-32
2022/10/08 02:25:33;;;;;;;4.57;1.53;;;15.20;99.90;;;;;;5070783;28;20445;-31
2022/10/08 02:28:10;;;;;;;3.67;1.67;;;15.20;99.90;;;;;;5078347;28;20216;-31
2022/10/08 02:30:45;;;;;;;5.67;1.60;;;15.20;99.90;;;;;;5071525;28;20207;-32
2022/10/08 02:33:20;;;;;;;5.70;2.00;;;15.30;99.90;;;;;;5067721;28;20731;-32
2022/10/08 02:35:52;;;;;;;4.03;1.63;;;15.30;99.90;;;;;;5076904;28;20259;-31
2022/10/08 02:38:25;;;;;;;5.30;1.77;;;15.30;99.90;;;;;;5086430;28;20943;-32
2022/10/08 02:40:57;;;;;;;5.83;1.80;;;15.30;99.90;;;;;;5085815;28;20199;-31
2022/10/08 02:43:30;;;;;;;8.50;2.00;;;15.30;99.90;;;;;;5074028;28;20202;-32
2022/10/08 02:46:06;;;;;;;8.60;1.90;;;15.30;99.90;;;;;;5080062;28;20787;-31
2022/10/08 02:48:41;;;;;;;5.10;1.83;;;15.40;99.90;;;;;;5067667;28;20697;-32
2022/10/08 02:51:13;;;;;;;5.27;1.80;;;15.40;99.90;;;;;;5075046;28;20232;-32
2022/10/08 02:53:41;;;;;;;7.13;1.97;;;15.40;99.90;;;;;;5070631;28;20207;-31
2022/10/08 02:56:25;;;;;;;7.70;1.97;;;15.40;99.90;;;;;;5083937;28;20625;-31
2022/10/08 02:58:53;;;;;;;5.22;1.58;;;15.40;99.90;;;;;;5047533;28;20227;-31
2022/10/08 03:01:44;;;;;;;7.67;2.00;;;15.40;99.90;;;;;;5061621;28;20294;-31
2022/10/08 03:04:20;;;;;;;5.77;2.17;;;15.40;99.90;;;;;;5067639;28;20192;-31
2022/10/08 03:06:52;;;;;;;5.93;2.30;;;15.40;99.90;;;;;;5067027;28;20199;-32
2022/10/08 03:09:22;;;;;;;9.37;2.27;;;15.40;99.90;;;;;;5067181;28;20553;-31
2022/10/08 03:11:50;;;;;;;6.80;2.27;;;15.40;99.90;;;;;;5066084;28;20206;-31
2022/10/08 03:14:19;;;;;;;7.33;1.77;;;15.40;99.90;;;;;;5066368;28;20195;-31
2022/10/08 03:16:47;;;;;;;7.37;2.27;;;15.40;99.90;;;;;;5065751;28;20678;-31
2022/10/08 03:19:18;;;;;;;5.03;1.93;;;15.40;99.90;;;;;;5066959;28;20227;-31
2022/10/08 03:21:52;;;;;;;4.73;2.20;;;15.40;99.90;;;;;;5065577;28;20612;-31
2022/10/08 03:24:19;;;;;;;7.17;2.40;;;15.40;99.90;;;;;;5066477;28;20535;-31
2022/10/08 03:26:47;;;;;;;11.83;2.40;;;15.40;99.90;;;;;;5066776;28;20265;-31
2022/10/08 03:29:14;;;;;;;8.48;2.33;;;15.40;99.90;;;;;;5066617;28;20216;-32
2022/10/08 03:31:45;;;;;;;9.43;2.30;;;15.40;99.90;;;;;;5065830;28;20673;-31
2022/10/08 03:34:13;;;;;;;6.07;2.70;;;15.40;99.90;;;;;;5069530;28;20195;-31
2022/10/08 03:36:40;;;;;;;6.83;2.33;;;15.40;99.90;;;;;;5076920;28;20293;-31
2022/10/08 03:39:11;;;;;;;8.00;2.33;;;15.40;99.90;;;;;;5069289;28;20757;-31
2022/10/08 03:41:40;;;;;;;5.70;2.33;;;15.40;99.90;;;;;;5063460;28;20196;-32
2022/10/08 03:44:09;;;;;;;6.03;2.20;;;15.40;99.90;;;;;;5065894;28;20199;-32
2022/10/08 03:46:36;;;;;;;7.17;2.90;;;15.30;99.90;;;;;;5076434;28;20214;-32
2022/10/08 03:49:04;;;;;;;6.37;2.80;;;15.30;99.90;;;;;;5069008;28;20196;-31
2022/10/08 03:51:31;;;;;;;6.50;2.50;;;15.30;99.90;;;;;;5066237;28;20641;-31
2022/10/08 03:53:58;;;;;;;6.03;2.50;;;15.30;99.90;;;;;;5072256;28;20333;-32
2022/10/08 03:56:26;;;;;;;7.27;2.77;;;15.20;99.90;;;;;;5085441;28;20195;-31
2022/10/08 03:58:54;;;;;;;5.23;2.70;;;15.20;99.90;;;;;;5086417;28;20222;-32
2022/10/08 04:01:22;;;;;;;7.23;2.80;;;15.20;99.90;;;;;;5066970;28;20215;-31
2022/10/08 04:03:49;;;;;;;8.70;2.83;;;15.20;99.90;;;;;;5064354;28;20231;-31
2022/10/08 04:06:16;;;;;;;7.27;3.00;;;15.30;99.90;;;;;;5083575;28;20232;-31
2022/10/08 04:08:44;;;;;;;5.93;3.03;;;15.30;99.90;;;;;;5085097;28;20195;-31
2022/10/08 04:11:14;;;;;;;6.73;2.93;;;15.20;99.90;;;;;;5077475;28;20227;-32
2022/10/08 04:13:44;;;;;;;9.00;3.33;;;15.20;99.90;;;;;;5065507;28;20218;-32
2022/10/08 04:16:17;;;;;;;8.07;3.20;;;15.20;99.90;;;;;;5070406;28;20207;-31
2022/10/08 04:18:48;;;;;;;10.53;3.23;;;15.20;99.90;;;;;;5072563;28;20241;-31
2022/10/08 04:21:17;;;;;;;10.10;3.20;;;15.20;99.90;;;;;;5061933;28;20338;-31
2022/10/08 04:23:48;;;;;;;8.40;3.40;;;15.20;99.90;;;;;;5049134;28;20200;-31
2022/10/08 04:26:16;;;;;;;9.20;3.10;;;15.20;99.90;;;;;;5057841;28;20206;-31
2022/10/08 04:28:44;;;;;;;8.80;3.30;;;15.10;99.90;;;;;;5083422;28;20219;-31
2022/10/08 04:31:17;;;;;;;8.47;3.07;;;15.10;99.90;;;;;;5076193;28;20202;-31
2022/10/08 04:33:45;;;;;;;8.00;3.23;;;15.10;99.90;;;;;;5081547;28;20481;-32
2022/10/08 04:36:21;;;;;;;10.03;3.77;;;15.10;99.90;;;;;;5068307;28;20699;-31
2022/10/08 04:38:49;;;;;;;7.35;3.58;;;15.10;99.90;;;;;;5084980;28;20717;-31
2022/10/08 04:41:19;;;;;;;7.07;3.30;;;15.00;99.90;;;;;;5081550;28;20769;-31
2022/10/08 04:43:46;;;;;;;7.55;3.60;;;15.00;99.90;;;;;;5083937;28;20197;-31
2022/10/08 04:46:16;;;;;;;10.53;3.77;;;15.00;99.90;;;;;;5084503;28;20211;-32
2022/10/08 04:48:47;;;;;;;8.77;3.47;;;15.00;99.90;;;;;;5081888;28;20200;-32
2022/10/08 04:51:15;;;;;;;8.83;3.47;;;14.90;99.90;;;;;;5063540;28;20203;-32
2022/10/08 04:53:43;;;;;;;7.17;3.70;;;14.90;99.90;;;;;;5065058;28;20215;-32
2022/10/08 04:56:20;;;;;;;7.82;3.78;;;14.90;99.90;;;;;;5069600;28;20572;-33
2022/10/08 04:58:47;;;;;;;11.40;4.05;;;14.80;99.90;;;;;;5081407;28;20657;-31
2022/10/08 05:01:17;;;;;;;6.67;3.20;;;14.80;99.90;;;;;;5057600;28;20198;-32
2022/10/08 05:03:52;;;;;;;7.70;4.10;;;14.80;99.90;;;;;;5048944;28;20371;-32
2022/10/08 05:06:26;;;;;;;12.40;4.00;;;14.80;99.90;;;;;;5054340;28;21735;-32
2022/10/08 05:08:55;;;;;;;9.17;3.63;;;14.80;99.90;;;;;;5054363;28;20230;-32
2022/10/08 05:11:23;;;;;;;8.30;3.67;;;14.70;99.90;;;;;;5059882;28;20753;-32
2022/10/08 05:13:54;;;;;;;8.30;4.10;;;14.70;99.90;;;;;;5060448;28;20204;-31
2022/10/08 05:16:22;;;;;;;8.03;4.00;;;14.70;99.90;;;;;;5049750;28;20303;-32
2022/10/08 05:18:50;;;;;;;9.17;4.03;;;14.70;99.90;;;;;;5048884;28;20547;-31
2022/10/08 05:21:21;;;;;;;8.60;4.23;;;14.60;99.90;;;;;;5056434;28;20242;-32
2022/10/08 05:23:57;;;;;;;8.57;4.63;;;14.60;99.90;;;;;;5048996;28;20698;-32
2022/10/08 05:26:28;;;;;;;6.63;3.83;;;14.60;99.90;;;;;;5049199;28;20207;-32
2022/10/08 05:29:15;;;;;;;9.07;4.40;;;14.60;99.90;;;;;;5048698;28;20679;-32
2022/10/08 05:31:43;;;;;;;10.37;4.57;;;14.60;99.90;;;;;;5057273;28;20230;-32
2022/10/08 05:34:14;;;;;;;9.50;4.20;;;14.60;99.90;;;;;;5061567;28;20573;-32
2022/10/08 05:36:41;;;;;;;7.00;4.20;;;14.60;99.90;;;;;;5070712;28;20212;-31
2022/10/08 05:39:12;;;;;;;9.87;4.23;;;14.50;99.90;;;;;;5049306;28;20258;-32
2022/10/08 05:41:40;;;;;;;8.17;4.77;;;14.50;99.90;;;;;;5056352;28;20239;-31
2022/10/08 05:44:10;;;;;;;11.93;4.70;;;14.50;99.90;;;;;;5085533;28;20507;-32
2022/10/08 05:46:38;;;;;;;15.03;5.23;;;14.50;99.90;;;;;;5086132;28;20302;-32
2022/10/08 05:49:07;;;;;;;12.40;5.13;;;14.40;99.90;;;;;;5088878;28;20676;-31
2022/10/08 05:51:35;;;;;;;11.03;5.17;;;14.40;99.90;;;;;;5081329;28;20234;-31
2022/10/08 05:54:02;;;;;;;10.40;4.60;;;14.40;99.90;;;;;;5059652;28;20476;-31
2022/10/08 05:56:30;;;;;;;10.43;5.37;;;14.40;99.90;;;;;;5064274;28;20220;-32
2022/10/08 05:58:57;;;;;;;12.47;5.40;;;14.40;99.90;;;;;;5061318;28;20262;-32
2022/10/08 06:01:27;;;;;;;11.20;5.40;;;14.40;99.90;;;;;;5047891;28;20582;-32
2022/10/08 06:03:58;;;;;;;8.70;5.13;;;14.40;99.90;;;;;;5048600;28;20189;-32
2022/10/08 06:06:34;;;;;;;10.33;4.90;;;14.40;99.90;;;;;;5056508;28;20298;-32
2022/10/08 06:09:05;;;;;;;8.60;5.20;;;14.40;99.90;;;;;;5060074;28;20241;-32
2022/10/08 06:11:34;;;;;;;10.37;5.03;;;14.30;99.90;;;;;;5064946;28;20623;-32
2022/10/08 06:14:04;;;;;;;10.67;4.90;;;14.30;99.90;;;;;;5067974;28;20215;-32
2022/10/08 06:16:32;;;;;;;13.23;5.07;;;14.30;99.90;;;;;;5068008;28;20249;-32
2022/10/08 06:19:01;;;;;;;12.20;5.57;;;14.30;99.90;;;;;;5066050;28;20265;-32
2022/10/08 06:21:30;;;;;;;9.90;4.83;;;14.30;99.90;;;;;;5061560;28;20208;-32
2022/10/08 06:23:59;;;;;;;13.13;5.83;;;14.30;99.90;;;;;;5062648;28;20238;-32
2022/10/08 06:26:29;;;;;;;10.93;4.80;;;14.30;99.90;;;;;;5067359;28;20253;-32
2022/10/08 06:29:09;;;;;;;9.57;4.07;;;14.30;99.90;;;;;;5066434;28;20195;-32
2022/10/08 06:31:37;;;;;;;10.77;5.23;;;14.30;99.90;;;;;;5065518;28;20740;-32
2022/10/08 06:34:04;;;;;;;11.83;5.10;;;14.30;99.90;;;;;;5068390;28;20208;-32
2022/10/08 06:36:33;;;;;;;7.83;4.77;;;14.30;99.90;;;;;;5058699;28;20204;-32
2022/10/08 06:39:12;;;;;;;7.33;4.30;;;14.30;99.90;;;;;;5063302;28;20277;-32
2022/10/08 06:41:40;;;;;;;11.53;4.33;;;14.40;99.90;;;;;;5057041;28;20199;-32
2022/10/08 06:44:11;;;;;;;9.00;4.30;;;14.40;99.90;;;;;;5066503;28;20667;-32
2022/10/08 06:46:41;;;;;;;9.63;4.47;;;14.40;99.90;;;;;;5056482;28;20214;-32
2022/10/08 06:49:09;;;;;;;8.17;3.80;;;14.40;99.90;;;;;;5063561;28;20273;-32
2022/10/08 06:51:37;;;;;;;7.33;3.77;;;14.40;99.90;;;;;;5064846;28;20307;-32
2022/10/08 06:54:04;;;;;;;10.23;5.20;;;14.50;99.90;;;;;;5064009;28;20253;-32
2022/10/08 06:56:36;;;;;;;10.13;4.53;;;14.50;99.90;;;;;;5064763;28;20233;-32
2022/10/08 06:59:04;;;;;;;8.73;4.50;;;14.50;99.90;;;;;;5065342;28;20211;-32
2022/10/08 07:01:33;;;;;;;9.20;4.10;;;14.60;99.90;;;;;;5066100;28;20195;-32
2022/10/08 07:04:01;;;;;;;8.33;3.97;;;14.60;99.90;;;;;;5064950;28;20752;-32
2022/10/08 07:06:30;;;;;;;12.40;3.73;;;14.60;99.90;;;;;;5063198;28;20208;-32
2022/10/08 07:08:59;;;;;;;10.10;4.07;;;14.70;99.90;;;;;;5065009;28;20306;-32
2022/10/08 07:11:27;;;;;;;8.13;3.93;;;14.60;99.90;;;;;;5063442;28;20195;-32
2022/10/08 07:13:55;;;;;;;7.23;3.90;;;14.70;99.90;;;;;;5057047;28;20208;-32
2022/10/08 07:16:24;;;;;;;8.47;4.00;;;14.70;99.90;;;;;;5055945;28;20215;-32
2022/10/08 07:18:55;;;;;;;9.17;3.80;;;14.70;99.90;;;;;;5055166;28;20252;-32
2022/10/08 07:21:22;;;;;;;12.13;4.23;;;14.70;99.90;;;;;;5057373;28;20785;-32
2022/10/08 07:23:50;;;;;;;8.50;3.90;;;14.80;99.90;;;;;;5061713;28;20203;-32
2022/10/08 07:26:31;;;;;;;8.67;3.73;;;14.80;99.90;;;;;;5065848;28;20215;-32
2022/10/08 07:29:04;;;;;;;9.90;4.70;;;14.80;99.90;;;;;;5062013;28;20700;-32
2022/10/08 07:31:35;;;;;;;10.83;4.50;;;14.80;99.90;;;;;;5064637;28;20207;-31
2022/10/08 07:34:08;;;;;;;10.37;3.67;;;14.80;99.90;;;;;;5062128;28;20226;-31
2022/10/08 07:36:35;;;;;;;9.33;3.20;;;14.80;99.90;;;;;;5063240;28;20235;-31
2022/10/08 07:39:10;;;;;;;8.33;3.20;;;14.90;99.90;;;;;;5062633;28;20737;-32
2022/10/08 07:41:37;;;;;;;9.77;3.07;;;14.90;99.90;;;;;;5064776;28;20712;-31
2022/10/08 07:44:09;;;;;;;8.37;2.60;;;14.90;99.90;;;;;;5063336;28;20215;-31
2022/10/08 07:46:40;;;;;;;7.73;2.70;;;14.90;99.90;;;;;;5063159;28;20743;-33
2022/10/08 07:49:07;;;;;;;10.10;2.97;;;15.00;99.90;;;;;;5049428;28;20250;-32
2022/10/08 07:51:35;;;;;;;13.33;3.50;;;15.00;99.90;;;;;;5053046;28;20581;-32
2022/10/08 07:54:04;;;;;;;7.00;2.80;;;15.00;99.90;;;;;;5063445;28;20302;-32
2022/10/08 07:56:35;;;;;;;8.27;2.27;;;15.10;99.90;;;;;;5063323;28;20192;-33
2022/10/08 07:59:03;;;;;;;8.20;2.30;;;15.10;99.90;;;;;;5064006;28;20257;-32
2022/10/08 08:01:32;;;;;;;6.43;2.20;;;15.10;99.90;;;;;;5063318;28;20216;-32
2022/10/08 08:04:05;;;;;;;9.60;3.27;;;15.10;99.90;;;;;;5063771;28;20643;-32
2022/10/08 08:06:37;;;;;;;11.87;2.87;;;15.10;99.90;;;;;;5062031;28;20840;-31
2022/10/08 08:09:04;;;;;;;9.57;2.53;;;15.10;99.90;;;;;;5064185;28;20617;-32
2022/10/08 08:11:31;;;;;;;6.13;2.23;;;15.20;99.90;;;;;;5064625;28;20199;-31
2022/10/08 08:13:59;;;;;;;6.20;2.30;;;15.20;99.90;;;;;;5063658;28;20557;-32
2022/10/08 08:16:28;;;;;;;7.83;2.10;;;15.20;99.90;;;;;;5059113;28;20203;-31
2022/10/08 08:19:00;;;;;;;8.70;2.00;;;15.20;99.90;;;;;;5066790;28;20239;-32
2022/10/08 08:21:36;;;;;;;9.43;2.23;;;15.20;99.90;;;;;;5062060;28;20304;-32
2022/10/08 08:24:12;;;;;;;8.40;2.03;;;15.20;99.90;;;;;;5064546;28;20225;-31
2022/10/08 08:26:41;;;;;;;8.97;2.20;;;15.30;99.90;;;;;;5065696;28;20290;-32
2022/10/08 08:29:15;;;;;;;15.83;2.67;;;15.30;99.90;;;;;;5064688;28;20210;-32
2022/10/08 08:31:44;;;;;;;8.43;2.23;;;15.30;99.90;;;;;;5064098;28;20214;-31
2022/10/08 08:34:18;;;;;;;8.10;2.03;;;15.30;99.90;;;;;;5065021;28;20696;-31
2022/10/08 08:36:48;;;;;;;10.63;1.80;;;15.30;99.90;;;;;;5064508;28;20239;-33
2022/10/08 08:39:21;;;;;;;5.43;2.00;;;15.30;99.90;;;;;;5054375;28;20226;-32
2022/10/08 08:41:55;;;;;;;7.70;2.43;;;15.30;99.90;;;;;;5060441;28;20247;-32
2022/10/08 08:44:39;;;;;;;7.57;1.70;;;15.30;99.90;;;;;;5063070;28;20208;-31
2022/10/08 08:47:22;;;;;;;8.77;2.07;;;15.30;99.90;;;;;;5062097;28;20214;-32
2022/10/08 08:49:57;;;;;;;8.43;1.50;;;15.30;99.90;;;;;;5045806;28;20279;-32
2022/10/08 08:52:34;;;;;;;7.60;1.70;;;15.30;99.90;;;;;;5063221;28;20221;-32
2022/10/08 08:55:01;;;;;;;8.57;1.60;;;15.30;99.90;;;;;;5067719;28;20191;-32
2022/10/08 08:57:41;;;;;;;8.57;1.60;;;15.40;99.90;;;;;;5064576;28;20628;-32
2022/10/08 09:00:21;;;;;;;7.03;1.97;;;15.40;99.90;;;;;;5048908;28;20306;-32
2022/10/08 09:02:57;;;;;;;6.57;1.80;;;15.40;99.90;;;;;;5068322;28;20202;-34
2022/10/08 09:05:27;;;;;;;6.27;1.53;;;15.40;99.90;;;;;;5067609;28;20199;-33
2022/10/08 09:08:15;;;;;;;8.33;1.60;;;15.50;99.90;;;;;;5066247;28;20210;-33
2022/10/08 09:10:47;;;;;;;9.30;1.87;;;15.50;99.90;;;;;;5064875;28;20208;-33
2022/10/08 09:13:20;;;;;;;5.10;1.40;;;15.40;99.90;;;;;;5048851;28;20219;-33
2022/10/08 09:15:50;;;;;;;5.10;0.90;;;15.40;99.90;;;;;;5052449;28;20192;-33
2022/10/08 09:18:17;;;;;;;5.07;1.37;;;15.40;99.90;;;;;;5066306;28;20759;-33
2022/10/08 09:20:47;;;;;;;8.53;1.20;;;15.40;99.90;;;;;;5066644;28;20200;-33
2022/10/08 09:23:19;;;;;;;7.60;1.20;;;15.40;99.90;;;;;;5067315;28;20198;-33
2022/10/08 09:26:14;;;;;;;5.33;0.80;;;15.40;99.90;;;;;;5067685;28;20188;-34
2022/10/08 09:28:52;;;;;;;4.20;0.90;;;15.40;99.90;;;;;;5066194;28;20215;-33
2022/10/08 09:31:39;;;;;;;7.83;1.20;;;15.30;99.90;;;;;;5059033;28;20207;-33
2022/10/08 09:34:12;;;;;;;5.03;1.47;;;15.30;99.90;;;;;;5067517;28;20430;-33
2022/10/08 09:36:50;;;;;;;5.20;0.93;;;15.30;99.90;;;;;;5064954;28;20214;-33
2022/10/08 09:39:18;;;;;;;5.30;1.50;;;15.20;99.90;;;;;;5063815;28;20219;-33
2022/10/08 09:42:03;;;;;;;5.63;1.60;;;15.20;99.90;;;;;;5065783;28;20294;-33
2022/10/08 09:44:43;;;;;;;8.53;1.27;;;15.30;99.90;;;;;;5068243;28;20561;-34
2022/10/08 09:47:13;;;;;;;8.60;1.37;;;15.30;99.90;;;;;;5060902;28;20254;-33
2022/10/08 09:49:48;;;;;;;3.70;1.27;;;15.20;99.90;;;;;;5068560;28;20249;-33
2022/10/08 09:52:26;;;;;;;12.40;1.63;;;15.30;99.90;;;;;;5066712;28;20216;-34
2022/10/08 09:55:08;;;;;;;9.80;1.50;;;15.30;99.90;;;;;;5067497;28;20202;-33
2022/10/08 09:57:44;;;;;;;3.63;1.07;;;15.40;99.90;;;;;;5064991;28;20261;-33
2022/10/08 10:00:27;;;;;;;3.47;1.17;;;15.40;99.90;;;;;;5067767;28;20234;-33
2022/10/08 10:02:56;;;;;;;12.43;1.60;;;15.50;99.90;;;;;;5064878;28;20682;-33
2022/10/08 10:05:32;;;;;;;6.57;1.30;;;15.60;99.90;;;;;;5063250;28;20199;-33
2022/10/08 10:08:02;;;;;;;4.93;1.10;;;15.60;99.90;;;;;;5065773;28;20202;-33
2022/10/08 10:10:43;;;;;;;2.23;0.93;;;15.60;99.90;;;;;;5051281;28;20191;-33
2022/10/08 10:13:22;;;;;;;7.43;1.40;;;15.70;99.90;;;;;;5047352;28;20196;-33
2022/10/08 10:16:04;;;;;;;4.07;1.00;;;15.70;99.90;;;;;;5058563;28;20207;-33
2022/10/08 10:18:50;;;;;;;6.97;1.47;;;15.70;99.90;;;;;;5063876;28;20266;-33
2022/10/08 10:21:43;;;;;;;5.00;1.13;;;15.70;99.90;;;;;;5065613;28;20841;-33
2022/10/08 10:24:22;;;;;;;4.73;1.43;;;15.70;99.90;;;;;;5063671;28;20572;-34
2022/10/08 10:26:52;;;;;;;5.23;1.23;;;15.70;99.90;;;;;;5066241;28;20665;-33
2022/10/08 10:29:26;;;;;;;4.57;1.30;;;15.70;99.90;;;;;;5061605;28;20699;-33
2022/10/08 10:32:03;;;;;;;5.80;1.20;;;15.70;99.90;;;;;;5065830;28;20652;-33
2022/10/08 10:34:38;;;;;;;5.17;1.63;;;15.80;99.90;;;;;;5065125;28;20687;-33
2022/10/08 10:37:19;;;;;;;6.37;1.10;;;15.80;99.90;;;;;;5058090;28;20207;-33
2022/10/08 10:40:10;;;;;;;5.13;1.20;;;15.80;99.90;;;;;;5050431;28;20235;-34
2022/10/08 10:43:07;;;;;;;4.60;0.90;;;15.80;99.90;;;;;;5065439;28;20192;-31
2022/10/08 10:45:38;;;;;;;3.97;1.20;;;15.80;99.90;;;;;;5063511;28;20980;-31
2022/10/08 10:48:07;;;;;;;5.13;1.03;;;15.90;99.90;;;;;;5060040;28;20206;-32
2022/10/08 10:50:54;;;;;;;2.97;1.00;;;15.90;99.90;;;;;;5060416;28;20207;-33
2022/10/08 10:53:29;;;;;;;5.07;1.13;;;15.80;99.90;;;;;;5064137;28;20203;-33
2022/10/08 10:56:24;;;;;;;3.43;1.10;;;15.80;99.90;;;;;;5066790;28;20195;-34
2022/10/08 10:58:54;;;;;;;4.50;1.13;;;15.80;99.90;;;;;;5065777;28;20235;-33
2022/10/08 11:01:24;;;;;;;7.17;1.37;;;15.90;99.90;;;;;;5066533;28;20200;-33
2022/10/08 11:04:18;;;;;;;3.80;1.00;;;15.90;99.90;;;;;;5066703;28;20279;-33
2022/10/08 11:07:10;;;;;;;7.70;1.73;;;16.00;99.90;;;;;;5060836;28;20198;-33
2022/10/08 11:09:53;;;;;;;10.37;1.53;;;16.10;99.90;;;;;;5067211;28;20208;-33
2022/10/08 11:12:23;;;;;;;5.83;1.43;;;16.10;99.90;;;;;;5066420;28;20204;-33
2022/10/08 11:15:06;;;;;;;4.50;1.80;;;16.20;99.90;;;;;;5066709;28;20203;-33
2022/10/08 11:17:45;;;;;;;7.00;1.77;;;16.30;99.90;;;;;;5065799;28;20211;-34
2022/10/08 11:20:28;;;;;;;5.77;1.50;;;16.30;99.90;;;;;;5064147;28;20603;-33
2022/10/08 11:23:10;;;;;;;7.93;1.67;;;16.30;99.90;;;;;;5061596;28;20702;-33
2022/10/08 11:26:01;;;;;;;4.33;1.50;;;16.40;99.90;;;;;;5064565;28;20241;-33
2022/10/08 11:29:11;;;;;;;4.13;1.80;;;16.40;99.90;;;;;;5063288;28;20550;-33
2022/10/08 11:31:47;;;;;;;3.40;1.77;;;16.50;99.90;;;;;;5066084;28;20290;-33
2022/10/08 11:34:23;;;;;;;4.60;1.53;;;16.50;99.90;;;;;;5062243;28;20219;-33
2022/10/08 11:37:02;;;;;;;4.63;1.60;;;16.50;99.90;;;;;;5044534;28;20204;-33
2022/10/08 11:39:35;;;;;;;3.37;1.13;;;16.40;99.90;;;;;;5052883;28;20215;-33
2022/10/08 11:42:17;;;;;;;4.93;1.70;;;16.40;99.90;;;;;;5064646;28;20601;-33
2022/10/08 11:44:45;;;;;;;3.30;1.37;;;16.40;99.90;;;;;;5066506;28;20210;-33
2022/10/08 11:47:40;;;;;;;6.63;1.97;;;16.30;99.90;;;;;;5064015;28;20360;-33
2022/10/08 11:50:33;;;;;;;6.20;1.73;;;16.20;99.90;;;;;;5063902;28;20239;-34
2022/10/08 11:53:14;;;;;;;4.17;1.27;;;16.20;99.90;;;;;;5066001;28;20195;-33
2022/10/08 11:55:54;;;;;;;4.63;1.13;;;16.20;99.90;;;;;;5063971;28;20214;-33
2022/10/08 11:58:29;;;;;;;1.57;1.07;;;16.30;99.90;;;;;;5065209;28;20203;-33
2022/10/08 12:01:05;;;;;;;4.73;0.90;;;16.30;99.90;;;;;;5057226;28;20995;-33
2022/10/08 12:03:36;;;;;;;6.30;1.20;;;16.30;99.90;;;;;;5057586;28;20199;-33
2022/10/08 12:06:18;;;;;;;6.50;1.70;;;16.30;99.90;;;;;;5063784;28;20200;-34
2022/10/08 12:08:51;;;;;;;5.30;1.43;;;16.40;99.90;;;;;;5063650;28;20708;-33
2022/10/08 12:11:31;;;;;;;4.20;1.07;;;16.40;99.90;;;;;;5064951;28;20633;-34
2022/10/08 12:14:11;;;;;;;5.67;1.60;;;16.50;99.90;;;;;;5061522;28;20200;-33
2022/10/08 12:16:49;;;;;;;5.77;1.33;;;16.50;99.90;;;;;;5063466;28;20203;-33
2022/10/08 12:19:34;;;;;;;6.47;1.50;;;16.60;99.90;;;;;;5060929;28;20231;-33
2022/10/08 12:22:25;;;;;;;10.87;1.63;;;16.60;99.90;;;;;;5057337;28;20200;-33
2022/10/08 12:24:59;;;;;;;5.13;1.53;;;16.60;99.90;;;;;;5063917;28;20234;-33
2022/10/08 12:27:36;;;;;;;3.47;0.93;;;16.60;99.90;;;;;;5064037;28;20585;-33
2022/10/08 12:30:12;;;;;;;5.50;0.90;;;16.60;99.90;;;;;;5064920;28;20203;-33
2022/10/08 12:32:42;;;;;;;4.73;0.97;;;16.60;99.90;;;;;;5045281;28;20261;-33
2022/10/08 12:35:39;;;;;;;3.33;1.00;;;16.60;99.90;;;;;;5062871;28;20526;-33
2022/10/08 12:38:12;;;;;;;4.40;1.07;;;16.70;99.90;;;;;;5065347;28;20211;-33
2022/10/08 12:40:45;;;;;;;3.13;1.17;;;16.70;99.90;;;;;;5065877;28;20250;-34
2022/10/08 12:43:15;;;;;;;4.83;0.90;;;16.60;99.90;;;;;;5066566;28;20207;-33
2022/10/08 12:45:52;;;;;;;4.13;1.10;;;16.70;99.90;;;;;;5055251;28;20203;-33
2022/10/08 12:48:32;;;;;;;3.07;0.90;;;16.70;99.90;;;;;;5048474;28;20192;-32
2022/10/08 12:51:36;;;;;;;2.40;0.70;;;16.70;99.90;;;;;;5054623;28;20215;-33
2022/10/08 12:54:04;;;;;;;2.77;0.90;;;16.80;99.90;;;;;;5047335;28;20223;-32
2022/10/08 12:56:31;;;;;;;5.47;1.23;;;16.80;99.90;;;;;;5055763;28;20222;-33
2022/10/08 12:59:02;;;;;;;6.13;1.10;;;16.80;99.90;;;;;;5063791;28;20290;-34
2022/10/08 13:01:30;;;;;;;2.40;0.80;;;16.90;99.90;;;;;;5062512;28;20203;-33
2022/10/08 13:04:15;;;;;;;3.63;0.93;;;16.90;99.90;;;;;;5055044;28;20203;-34
2022/10/08 13:06:45;;;;;;;6.13;1.10;;;16.90;99.90;;;;;;5062803;28;20273;-33
2022/10/08 13:09:34;;;;;;;5.67;0.70;;;17.00;99.90;;;;;;5064200;28;20308;-33
2022/10/08 13:12:04;;;;;;;4.30;0.93;;;16.90;99.90;;;;;;5059594;28;20326;-33
2022/10/08 13:14:34;;;;;;;2.83;0.80;;;16.80;99.90;;;;;;5064649;28;20282;-34
2022/10/08 13:17:01;;;;;;;3.40;1.27;;;16.90;99.90;;;;;;5063024;28;20800;-33
2022/10/08 13:19:32;;;;;;;3.33;0.90;;;17.00;99.90;;;;;;5062426;28;20240;-32
2022/10/08 13:22:03;;;;;;;6.00;1.10;;;17.00;99.90;;;;;;5064342;28;20675;-34